createdAt,value
2018-08-06T00:00:27.878Z,14.30
2018-08-06T00:02:57.073Z,14.20
2018-08-06T00:05:26.290Z,14.00
2018-08-06T00:07:56.812Z,13.90
2018-08-06T00:10:28.258Z,13.80
2018-08-06T00:12:57.720Z,13.70
2018-08-06T00:15:26.956Z,13.60
2018-08-06T00:17:56.290Z,13.70
2018-08-06T00:20:25.452Z,13.80
2018-08-06T00:22:54.620Z,13.90
2018-08-06T00:25:23.866Z,14.00
2018-08-06T00:27:53.109Z,13.90
2018-08-06T00:30:22.541Z,13.90
2018-08-06T00:32:51.740Z,13.90
2018-08-06T00:35:21.055Z,13.90
2018-08-06T00:37:50.256Z,13.90
2018-08-06T00:40:20.988Z,13.90
2018-08-06T00:42:50.686Z,13.90
2018-08-06T00:45:21.186Z,14.00
2018-08-06T00:47:50.717Z,14.10
2018-08-06T00:50:20.171Z,14.10
2018-08-06T00:52:50.057Z,14.10
2018-08-06T00:55:20.385Z,14.10
2018-08-06T00:57:49.694Z,14.10
2018-08-06T01:00:20.099Z,13.90
2018-08-06T01:02:49.299Z,13.80
2018-08-06T01:05:18.755Z,13.80
2018-08-06T01:07:48.033Z,13.70
2018-08-06T01:10:18.626Z,13.60
2018-08-06T01:12:47.962Z,13.60
2018-08-06T01:15:18.415Z,13.60
2018-08-06T01:17:47.536Z,13.60
2018-08-06T01:20:16.873Z,13.60
2018-08-06T01:22:46.589Z,13.60
2018-08-06T01:25:16.437Z,13.60
2018-08-06T01:27:45.748Z,13.60
2018-08-06T01:30:15.603Z,13.60
2018-08-06T01:32:45.012Z,13.60
2018-08-06T01:35:14.760Z,13.50
2018-08-06T01:37:44.013Z,13.50
2018-08-06T01:40:14.267Z,13.50
2018-08-06T01:42:43.554Z,13.40
2018-08-06T01:45:14.530Z,13.30
2018-08-06T01:47:43.893Z,13.20
2018-08-06T01:50:14.152Z,13.00
2018-08-06T01:52:43.636Z,12.90
2018-08-06T01:55:12.844Z,12.70
2018-08-06T01:57:42.146Z,12.60
2018-08-06T02:00:13.725Z,12.60
2018-08-06T02:02:43.001Z,12.50
2018-08-06T02:05:12.577Z,12.40
2018-08-06T02:07:41.938Z,12.40
2018-08-06T02:10:13.958Z,12.40
2018-08-06T02:12:43.988Z,12.30
2018-08-06T02:15:14.672Z,12.20
2018-08-06T02:17:43.897Z,12.20
2018-08-06T02:20:15.673Z,12.10
2018-08-06T02:22:46.184Z,12.10
2018-08-06T02:25:15.844Z,12.20
2018-08-06T02:27:45.098Z,12.20
2018-08-06T02:30:15.436Z,12.20
2018-08-06T02:32:44.935Z,12.10
2018-08-06T02:35:15.145Z,12.10
2018-08-06T02:37:44.979Z,12.10
2018-08-06T02:40:16.901Z,12.10
2018-08-06T02:42:46.660Z,12.20
2018-08-06T02:45:16.772Z,12.10
2018-08-06T02:47:46.540Z,12.10
2018-08-06T02:50:16.906Z,12.10
2018-08-06T02:52:46.208Z,12.10
2018-08-06T02:55:16.300Z,12.00
2018-08-06T02:57:45.712Z,12.00
2018-08-06T03:00:16.636Z,12.00
2018-08-06T03:02:46.803Z,12.00
2018-08-06T03:05:17.399Z,12.00
2018-08-06T03:07:47.140Z,12.20
2018-08-06T03:10:17.335Z,12.60
2018-08-06T03:12:47.172Z,13.00
2018-08-06T03:15:16.331Z,13.10
2018-08-06T03:17:45.811Z,13.20
2018-08-06T03:20:15.251Z,13.30
2018-08-06T03:22:44.532Z,13.30
2018-08-06T03:25:15.954Z,13.30
2018-08-06T03:27:45.660Z,13.30
2018-08-06T03:30:16.588Z,13.40
2018-08-06T03:32:47.099Z,13.30
2018-08-06T03:35:16.421Z,13.20
2018-08-06T03:37:45.746Z,13.10
2018-08-06T03:40:15.478Z,13.10
2018-08-06T03:42:44.808Z,13.00
2018-08-06T03:45:14.636Z,13.10
2018-08-06T03:47:44.690Z,13.20
2018-08-06T03:50:14.589Z,13.30
2018-08-06T03:52:44.132Z,13.40
2018-08-06T03:55:13.607Z,13.40
2018-08-06T03:57:43.016Z,13.40
2018-08-06T04:00:13.616Z,13.40
2018-08-06T04:02:43.308Z,13.40
2018-08-06T04:05:14.592Z,13.40
2018-08-06T04:07:44.329Z,13.40
2018-08-06T04:10:15.818Z,13.40
2018-08-06T04:12:45.146Z,13.50
2018-08-06T04:15:14.371Z,13.60
2018-08-06T04:17:44.046Z,13.60
2018-08-06T04:20:13.828Z,13.70
2018-08-06T04:22:43.776Z,13.60
2018-08-06T04:25:13.194Z,13.60
2018-08-06T04:27:42.486Z,13.70
2018-08-06T04:30:13.619Z,13.80
2018-08-06T04:32:44.428Z,13.90
2018-08-06T04:35:13.862Z,13.90
2018-08-06T04:37:43.871Z,14.10
2018-08-06T04:40:13.646Z,14.20
2018-08-06T04:42:43.400Z,14.40
2018-08-06T04:45:13.002Z,14.50
2018-08-06T04:47:42.613Z,14.70
2018-08-06T04:50:13.788Z,14.70
2018-08-06T04:52:43.799Z,14.80
2018-08-06T04:55:14.317Z,14.90
2018-08-06T04:57:43.710Z,15.10
2018-08-06T05:00:14.423Z,15.30
2018-08-06T05:05:13.204Z,15.60
2018-08-06T05:07:42.334Z,15.70
2018-08-06T05:10:11.528Z,16.10
2018-08-06T05:12:40.850Z,16.10
2018-08-06T05:15:10.085Z,16.50
2018-08-06T05:17:39.350Z,16.90
2018-08-06T05:20:09.348Z,17.30
2018-08-06T05:22:38.656Z,17.50
2018-08-06T05:25:07.949Z,17.60
2018-08-06T05:27:38.904Z,17.70
2018-08-06T05:30:09.971Z,17.80
2018-08-06T05:32:39.135Z,17.70
2018-08-06T05:35:08.630Z,17.70
2018-08-06T05:37:37.801Z,17.70
2018-08-06T05:40:08.152Z,17.90
2018-08-06T05:42:37.752Z,18.30
2018-08-06T05:45:07.789Z,18.70
2018-08-06T05:47:38.133Z,18.80
2018-08-06T05:50:09.888Z,18.80
2018-08-06T05:52:39.177Z,19.10
2018-08-06T05:55:09.237Z,19.70
2018-08-06T05:57:42.313Z,20.10
2018-08-06T06:00:17.040Z,20.30
2018-08-06T06:02:46.826Z,20.70
2018-08-06T06:07:44.939Z,21.20
2018-08-06T06:10:15.456Z,21.50
2018-08-06T06:12:44.675Z,20.90
2018-08-06T06:15:15.696Z,21.20
2018-08-06T06:17:45.184Z,21.20
2018-08-06T06:20:14.352Z,21.10
2018-08-06T06:22:43.772Z,21.40
2018-08-06T06:25:14.023Z,22.00
2018-08-06T06:27:43.608Z,21.80
2018-08-06T06:30:15.212Z,21.80
2018-08-06T06:32:44.433Z,22.10
2018-08-06T06:35:14.175Z,22.60
2018-08-06T06:37:43.586Z,22.90
2018-08-06T06:42:41.587Z,23.80
2018-08-06T06:45:11.207Z,24.30
2018-08-06T06:47:40.517Z,24.20
2018-08-06T06:50:09.888Z,24.40
2018-08-06T06:52:39.164Z,24.00
2018-08-06T06:55:11.231Z,24.10
2018-08-06T06:57:40.606Z,24.30
2018-08-06T07:00:10.920Z,24.80
2018-08-06T07:02:40.912Z,24.80
2018-08-06T07:05:10.221Z,25.00
2018-08-06T07:07:39.597Z,24.70
2018-08-06T07:10:10.714Z,25.50
2018-08-06T07:12:39.914Z,26.10
2018-08-06T07:15:12.522Z,25.90
2018-08-06T07:17:43.716Z,26.20
2018-08-06T07:20:13.219Z,26.30
2018-08-06T07:22:42.581Z,26.70
2018-08-06T07:25:12.386Z,26.40
2018-08-06T07:27:43.104Z,26.90
2018-08-06T07:30:16.564Z,27.50
2018-08-06T07:32:46.044Z,27.50
2018-08-06T07:35:15.644Z,27.60
2018-08-06T07:37:47.460Z,27.60
2018-08-06T07:40:16.660Z,27.90
2018-08-06T07:42:46.051Z,28.30
2018-08-06T07:45:18.755Z,28.30
2018-08-06T07:47:48.878Z,28.80
2018-08-06T07:50:19.395Z,28.30
2018-08-06T07:52:48.943Z,28.40
2018-08-06T07:55:18.144Z,28.30
2018-08-06T07:57:47.364Z,27.40
2018-08-06T08:00:18.135Z,27.70
2018-08-06T08:02:47.362Z,27.90
2018-08-06T08:07:47.920Z,27.70
2018-08-06T08:10:22.965Z,27.70
2018-08-06T08:12:52.258Z,28.00
2018-08-06T08:15:25.072Z,27.70
2018-08-06T08:17:55.081Z,28.60
2018-08-06T08:20:24.481Z,28.90
2018-08-06T08:22:53.625Z,29.50
2018-08-06T08:25:23.475Z,28.60
2018-08-06T08:27:52.636Z,29.40
2018-08-06T08:30:22.141Z,29.60
2018-08-06T08:32:51.484Z,28.50
2018-08-06T08:35:20.801Z,29.40
2018-08-06T08:37:50.067Z,30.20
2018-08-06T08:40:20.154Z,29.70
2018-08-06T08:42:49.384Z,30.70
2018-08-06T08:45:19.116Z,30.40
2018-08-06T08:47:48.409Z,30.50
2018-08-06T08:50:19.656Z,31.00
2018-08-06T08:52:49.080Z,31.00
2018-08-06T08:55:19.797Z,30.50
2018-08-06T08:57:50.819Z,30.10
2018-08-06T09:00:22.158Z,30.50
2018-08-06T09:02:52.506Z,31.20
2018-08-06T09:07:51.882Z,31.60
2018-08-06T09:10:21.659Z,31.80
2018-08-06T09:12:51.143Z,32.20
2018-08-06T09:15:25.160Z,32.60
2018-08-06T09:17:54.391Z,32.50
2018-08-06T09:20:24.606Z,33.10
2018-08-06T09:22:53.818Z,33.50
2018-08-06T09:25:23.028Z,33.40
2018-08-06T09:27:52.596Z,33.60
2018-08-06T09:30:23.129Z,32.90
2018-08-06T09:32:54.824Z,33.70
2018-08-06T09:35:24.340Z,33.50
2018-08-06T09:37:53.796Z,33.90
2018-08-06T09:40:23.823Z,32.70
2018-08-06T09:42:53.425Z,32.60
2018-08-06T09:45:23.245Z,33.10
2018-08-06T09:47:53.672Z,34.10
2018-08-06T09:50:23.359Z,33.90
2018-08-06T09:52:53.405Z,33.10
2018-08-06T09:55:25.047Z,33.60
2018-08-06T09:57:54.372Z,34.30
2018-08-06T10:00:28.931Z,35.10
2018-08-06T10:02:59.632Z,34.90
2018-08-06T10:05:29.208Z,35.00
2018-08-06T10:07:58.394Z,34.90
2018-08-06T10:10:27.606Z,34.90
2018-08-06T10:12:56.792Z,32.50
2018-08-06T10:15:26.107Z,33.10
2018-08-06T10:17:55.928Z,34.00
2018-08-06T10:20:26.049Z,33.80
2018-08-06T10:22:55.440Z,33.50
2018-08-06T10:25:24.714Z,33.50
2018-08-06T10:27:54.128Z,32.70
2018-08-06T10:30:23.838Z,33.70
2018-08-06T10:32:53.183Z,33.70
2018-08-06T10:35:22.352Z,33.30
2018-08-06T10:37:51.576Z,33.30
2018-08-06T10:40:22.231Z,33.90
2018-08-06T10:42:52.099Z,33.80
2018-08-06T10:45:22.439Z,33.10
2018-08-06T10:47:52.029Z,33.00
2018-08-06T10:50:21.348Z,33.90
2018-08-06T10:52:50.564Z,33.60
2018-08-06T10:55:20.115Z,33.80
2018-08-06T10:57:49.363Z,34.80
2018-08-06T11:00:19.985Z,34.20
2018-08-06T11:02:49.574Z,34.40
2018-08-06T11:05:19.679Z,34.30
2018-08-06T11:07:49.094Z,34.00
2018-08-06T11:10:19.763Z,34.40
2018-08-06T11:12:48.996Z,34.80
2018-08-06T11:15:20.397Z,34.60
2018-08-06T11:17:49.775Z,34.70
2018-08-06T11:20:19.751Z,35.40
2018-08-06T11:22:49.034Z,35.30
2018-08-06T11:25:20.117Z,35.40
2018-08-06T11:28:01.638Z,35.90
2018-08-06T11:30:30.967Z,36.20
2018-08-06T11:33:01.053Z,35.80
2018-08-06T11:35:30.246Z,34.20
2018-08-06T11:40:28.391Z,35.00
2018-08-06T11:42:58.578Z,34.40
2018-08-06T11:45:27.787Z,34.20
2018-08-06T11:47:57.150Z,33.80
2018-08-06T11:50:26.342Z,34.30
2018-08-06T11:52:55.553Z,34.20
2018-08-06T11:55:24.839Z,34.50
2018-08-06T11:57:54.160Z,34.70
2018-08-06T12:00:26.199Z,34.80
2018-08-06T12:02:55.347Z,35.10
2018-08-06T12:05:24.705Z,35.30
2018-08-06T12:07:54.051Z,35.30
2018-08-06T12:10:23.278Z,35.40
2018-08-06T12:12:52.539Z,36.80
2018-08-06T12:15:21.832Z,37.80
2018-08-06T12:17:51.101Z,37.10
2018-08-06T12:20:30.357Z,36.70
2018-08-06T12:22:59.528Z,35.60
2018-08-06T12:25:28.772Z,35.50
2018-08-06T12:30:26.604Z,35.00
2018-08-06T12:32:55.877Z,34.80
2018-08-06T12:35:25.039Z,35.10
2018-08-06T12:37:54.261Z,36.30
2018-08-06T12:40:39.336Z,36.10
2018-08-06T12:43:09.413Z,35.40
2018-08-06T12:45:38.614Z,35.70
2018-08-06T12:48:07.772Z,35.90
2018-08-06T12:50:37.071Z,36.70
2018-08-06T12:53:06.472Z,37.70
2018-08-06T12:55:35.653Z,37.20
2018-08-06T12:58:05.500Z,37.10
2018-08-06T13:00:34.856Z,37.80
2018-08-06T13:03:07.247Z,37.30
2018-08-06T13:05:36.405Z,35.80
2018-08-06T13:08:05.656Z,35.60
2018-08-06T13:10:35.152Z,36.60
2018-08-06T13:13:04.497Z,37.60
2018-08-06T13:15:34.012Z,37.50
2018-08-06T13:18:03.290Z,38.10
2018-08-06T13:20:32.591Z,37.50
2018-08-06T13:23:01.856Z,39.00
2018-08-06T13:25:31.138Z,38.20
2018-08-06T13:28:01.008Z,37.60
2018-08-06T13:30:30.221Z,37.40
2018-08-06T13:33:01.376Z,36.70
2018-08-06T13:35:30.588Z,36.80
2018-08-06T13:37:59.837Z,38.40
2018-08-06T13:40:29.163Z,39.20
2018-08-06T13:42:58.400Z,39.80
2018-08-06T13:45:27.592Z,39.00
2018-08-06T13:47:56.909Z,39.10
2018-08-06T13:50:26.968Z,37.50
2018-08-06T13:52:56.646Z,38.10
2018-08-06T13:55:26.156Z,38.30
2018-08-06T13:57:55.417Z,36.90
2018-08-06T14:00:24.638Z,37.10
2018-08-06T14:02:53.782Z,37.10
2018-08-06T14:05:22.946Z,37.10
2018-08-06T14:07:52.860Z,37.80
2018-08-06T14:10:22.080Z,37.90
2018-08-06T14:12:51.385Z,37.60
2018-08-06T14:15:20.592Z,37.40
2018-08-06T14:17:49.741Z,37.20
2018-08-06T14:20:19.176Z,37.10
2018-08-06T14:22:48.994Z,38.10
2018-08-06T14:25:18.145Z,37.70
2018-08-06T14:27:47.337Z,37.80
2018-08-06T14:30:17.456Z,38.70
2018-08-06T14:32:46.753Z,38.50
2018-08-06T14:35:23.672Z,39.20
2018-08-06T14:37:53.480Z,39.40
2018-08-06T14:40:29.044Z,40.30
2018-08-06T14:42:58.224Z,40.60
2018-08-06T14:45:27.398Z,40.50
2018-08-06T14:47:56.667Z,40.70
2018-08-06T14:50:25.811Z,41.00
2018-08-06T14:52:56.740Z,40.90
2018-08-06T14:55:25.885Z,39.20
2018-08-06T14:57:55.029Z,38.70
2018-08-06T15:00:24.176Z,39.00
2018-08-06T15:02:53.890Z,38.80
2018-08-06T15:05:23.020Z,39.40
2018-08-06T15:07:52.126Z,39.70
2018-08-06T15:10:21.256Z,40.30
2018-08-06T15:12:51.277Z,40.60
2018-08-06T15:15:20.477Z,39.90
2018-08-06T15:17:49.596Z,40.40
2018-08-06T15:20:19.502Z,39.70
2018-08-06T15:22:48.737Z,39.90
2018-08-06T15:25:21.103Z,39.40
2018-08-06T15:27:50.489Z,39.30
2018-08-06T15:30:19.795Z,38.30
2018-08-06T15:32:49.004Z,37.30
2018-08-06T15:35:18.167Z,36.60
2018-08-06T15:37:47.432Z,35.80
2018-08-06T15:40:18.381Z,35.60
2018-08-06T15:42:50.247Z,36.10
2018-08-06T15:45:19.563Z,36.00
2018-08-06T15:47:48.767Z,35.90
2018-08-06T15:50:19.596Z,35.10
2018-08-06T15:52:51.767Z,32.90
2018-08-06T15:55:21.015Z,31.70
2018-08-06T15:57:50.153Z,31.10
2018-08-06T16:00:20.149Z,30.60
2018-08-06T16:02:49.404Z,30.00
2018-08-06T16:05:18.593Z,29.50
2018-08-06T16:07:47.793Z,28.80
2018-08-06T16:10:17.272Z,28.60
2018-08-06T16:12:47.392Z,28.50
2018-08-06T16:15:17.020Z,28.30
2018-08-06T16:17:46.216Z,28.20
2018-08-06T16:20:17.642Z,28.10
2018-08-06T16:22:46.840Z,27.80
2018-08-06T16:25:16.124Z,27.80
2018-08-06T16:27:45.373Z,27.90
2018-08-06T16:30:16.637Z,27.70
2018-08-06T16:32:46.822Z,27.50
2018-08-06T16:35:17.076Z,27.00
2018-08-06T16:37:46.241Z,26.90
2018-08-06T16:40:15.445Z,27.00
2018-08-06T16:42:44.697Z,27.10
2018-08-06T16:45:13.869Z,27.10
2018-08-06T16:47:43.144Z,27.00
2018-08-06T16:50:13.695Z,26.70
2018-08-06T16:52:43.097Z,26.60
2018-08-06T16:55:12.208Z,26.40
2018-08-06T16:57:41.643Z,26.20
2018-08-06T17:00:16.915Z,26.10
2018-08-06T17:02:46.260Z,26.00
2018-08-06T17:05:15.473Z,25.90
2018-08-06T17:07:45.744Z,25.80
2018-08-06T17:10:16.355Z,25.70
2018-08-06T17:12:46.507Z,25.70
2018-08-06T17:15:16.988Z,25.70
2018-08-06T17:17:46.648Z,25.70
2018-08-06T17:20:17.567Z,25.60
2018-08-06T17:22:50.307Z,25.50
2018-08-06T17:25:19.648Z,25.40
2018-08-06T17:27:49.460Z,25.30
2018-08-06T17:30:19.548Z,25.20
2018-08-06T17:32:50.324Z,25.10
2018-08-06T17:35:19.509Z,25.00
2018-08-06T17:37:48.691Z,24.90
2018-08-06T17:40:18.930Z,24.80
2018-08-06T17:42:48.293Z,24.70
2018-08-06T17:45:21.227Z,24.60
2018-08-06T17:47:50.481Z,24.60
2018-08-06T17:50:21.026Z,24.50
2018-08-06T17:52:51.147Z,24.50
2018-08-06T17:55:21.271Z,24.50
2018-08-06T17:57:51.233Z,24.50
2018-08-06T18:00:20.743Z,24.40
2018-08-06T18:02:49.946Z,24.30
2018-08-06T18:05:19.513Z,24.30
2018-08-06T18:07:50.290Z,24.20
2018-08-06T18:10:19.580Z,24.10
2018-08-06T18:12:48.995Z,24.10
2018-08-06T18:15:18.116Z,23.90
2018-08-06T18:17:47.376Z,23.80
2018-08-06T18:20:18.586Z,23.70
2018-08-06T18:22:47.861Z,23.60
2018-08-06T18:25:18.478Z,23.50
2018-08-06T18:27:48.583Z,23.50
2018-08-06T18:30:19.959Z,23.40
2018-08-06T18:32:49.400Z,23.30
2018-08-06T18:35:19.885Z,23.20
2018-08-06T18:37:49.566Z,23.20
2018-08-06T18:40:20.035Z,23.10
2018-08-06T18:42:49.310Z,23.00
2018-08-06T18:45:19.808Z,22.90
2018-08-06T18:47:49.786Z,22.90
2018-08-06T18:50:19.948Z,22.70
2018-08-06T18:52:49.524Z,22.70
2018-08-06T18:55:19.224Z,22.50
2018-08-06T18:57:48.552Z,22.50
2018-08-06T19:00:23.237Z,22.30
2018-08-06T19:02:55.844Z,22.20
2018-08-06T19:05:25.328Z,22.10
2018-08-06T19:07:54.894Z,22.00
2018-08-06T19:10:24.198Z,21.90
2018-08-06T19:12:59.219Z,21.80
2018-08-06T19:15:28.995Z,21.60
2018-08-06T19:19:01.602Z,21.50
2018-08-06T19:21:30.880Z,21.50
2018-08-06T19:24:05.629Z,21.30
2018-08-06T19:26:34.849Z,21.20
2018-08-06T19:29:04.381Z,21.00
2018-08-06T19:31:33.895Z,21.00
2018-08-06T19:34:03.093Z,20.90
2018-08-06T19:36:37.923Z,20.90
2018-08-06T19:39:09.321Z,20.90
2018-08-06T19:41:39.554Z,20.80
2018-08-06T19:44:08.924Z,20.70
2018-08-06T19:46:38.359Z,20.50
2018-08-06T19:49:13.340Z,20.30
2018-08-06T19:51:42.833Z,20.10
2018-08-06T19:54:12.132Z,20.20
2018-08-06T19:56:41.529Z,20.30
2018-08-06T19:59:11.406Z,20.30
2018-08-06T20:01:40.454Z,20.30
2018-08-06T20:04:09.892Z,20.30
2018-08-06T20:06:39.007Z,20.30
2018-08-06T20:09:11.264Z,20.30
2018-08-06T20:11:40.596Z,20.20
2018-08-06T20:14:10.391Z,20.10
2018-08-06T20:16:39.623Z,20.10
2018-08-06T20:21:38.500Z,20.10
2018-08-06T20:26:36.739Z,20.00
2018-08-06T20:29:06.708Z,19.70
2018-08-06T20:31:35.894Z,19.60
2018-08-06T20:34:05.309Z,19.50
2018-08-06T20:36:34.508Z,19.60
2018-08-06T20:39:04.388Z,19.70
2018-08-06T20:41:33.597Z,19.70
2018-08-06T20:44:02.912Z,19.80
2018-08-06T20:46:32.189Z,19.80
2018-08-06T20:49:01.758Z,19.80
2018-08-06T20:51:31.177Z,19.70
2018-08-06T20:54:00.379Z,19.60
2018-08-06T20:56:29.846Z,19.70
2018-08-06T20:58:59.095Z,19.60
2018-08-06T21:01:28.427Z,19.50
2018-08-06T21:03:57.571Z,19.50
2018-08-06T21:06:26.769Z,19.60
2018-08-06T21:08:56.087Z,19.70
2018-08-06T21:11:25.282Z,19.60
2018-08-06T21:13:54.590Z,19.80
2018-08-06T21:16:23.682Z,19.90
2018-08-06T21:18:53.573Z,19.90
2018-08-06T21:21:22.885Z,19.90
2018-08-06T21:23:52.160Z,19.90
2018-08-06T21:26:21.370Z,19.80
2018-08-06T21:28:50.776Z,19.80
2018-08-06T21:31:20.371Z,19.70
2018-08-06T21:33:49.577Z,19.60
2018-08-06T21:36:18.904Z,19.60
2018-08-06T21:38:48.030Z,19.40
2018-08-06T21:41:17.259Z,19.30
2018-08-06T21:43:46.463Z,19.20
2018-08-06T21:46:15.637Z,19.20
2018-08-06T21:48:44.860Z,19.10
2018-08-06T21:51:14.199Z,19.00
2018-08-06T21:53:43.261Z,18.90
2018-08-06T21:58:41.169Z,18.90
2018-08-06T22:01:10.676Z,18.90
2018-08-06T22:03:40.893Z,18.90
2018-08-06T22:06:10.101Z,18.70
2018-08-06T22:08:39.587Z,18.60
2018-08-06T22:11:08.931Z,18.80
2018-08-06T22:13:38.304Z,18.80
2018-08-06T22:16:08.328Z,18.80
2018-08-06T22:18:37.626Z,18.70
2018-08-06T22:21:07.419Z,18.80
2018-08-06T22:23:36.635Z,18.90
2018-08-06T22:26:06.412Z,18.90
2018-08-06T22:28:35.795Z,19.00
2018-08-06T22:31:05.110Z,19.00
2018-08-06T22:33:34.317Z,19.00
2018-08-06T22:36:03.667Z,19.10
2018-08-06T22:38:32.832Z,19.10
2018-08-06T22:41:02.150Z,19.00
2018-08-06T22:43:31.466Z,19.00
2018-08-06T22:46:00.622Z,19.00
2018-08-06T22:48:29.839Z,18.90
2018-08-06T22:50:59.072Z,18.80
2018-08-06T22:53:28.344Z,18.80
2018-08-06T22:56:09.026Z,18.70
2018-08-06T22:58:38.811Z,18.70
2018-08-06T23:01:09.756Z,18.60
2018-08-06T23:03:38.964Z,18.70
2018-08-06T23:06:09.082Z,18.50
2018-08-06T23:08:38.486Z,18.30
2018-08-06T23:11:08.131Z,18.10
2018-08-06T23:13:37.331Z,17.80
2018-08-06T23:16:06.523Z,17.60
2018-08-06T23:18:35.717Z,17.50
2018-08-06T23:21:04.900Z,17.30
2018-08-06T23:23:34.156Z,17.20
2018-08-06T23:26:03.454Z,17.20
2018-08-06T23:28:32.735Z,17.20
2018-08-06T23:31:01.974Z,17.30
2018-08-06T23:33:31.169Z,17.30
2018-08-06T23:36:00.425Z,17.30
2018-08-06T23:38:29.647Z,17.10
2018-08-06T23:40:58.820Z,17.00
2018-08-06T23:43:28.012Z,16.80
2018-08-06T23:45:57.264Z,16.70
2018-08-06T23:48:26.593Z,16.60
2018-08-06T23:50:56.338Z,16.50
2018-08-06T23:53:25.639Z,16.50
2018-08-06T23:55:55.155Z,16.40
2018-08-06T23:58:24.429Z,16.40
